Tiempo atmosférico en la estación meteorológica de Carmona, Sevilla (50 m.)



Fecha
DESCASC
Temp. máxima en grados centígrados (hora)
DESCASC
Temp. mínima en grados centígrados (hora)
DESCASC
Temp. media en grados centígrados
DESCASC
Racha de viento máxima en m/sg (hora)
DESCASC
Velocidad máxima media en intervalos de 10 minutos(hora)
DESCASC
Precipitaciones diarias en mm
DESCASC
Precipitaciones de 00:00 a 06:00 en mm
DESCASC
Precipitaciones de 06:00 a 12:00 en mm
DESCASC
Precipitaciones de 12:00 a 18:00 en mm
DESCASC
Precipitaciones de 18:00 a 24:00 en mm
DESCASC
23-06-2019 32.6 (18:20) 15.8 (07:10) 24.2 8.61 (19:40) 5.83 (21:40) 0 0 0 0 0
22-06-2019 33.8 (17:30) 15 (07:20) 24.4 9.17 (20:10) 6.39 (20:10) 0 0 0 0 0
21-06-2019 32.4 (18:40) 14.6 (07:10) 23.5 8.61 (20:30) 5.56 (20:20) 0 0 0 0 0
20-06-2019 28.7 (17:20) 16.5 (00:00) 22.6 11.67 (18:20) 7.5 (19:20) 0 0 0 0 0
19-06-2019 30.5 (18:00) 17.6 (00:00) 24.1 11.94 (20:50) 7.78 (20:50) 0 0 0 0 0
18-06-2019 27.4 (18:00) 13.9 (00:00) 20.6 11.67 (18:10) 7.22 (19:30) 0 0 0 0 0
17-06-2019 31 (17:30) 12.7 (00:00) 21.8 10.56 (18:20) 6.11 (19:20) 0 0 0 0 0
16-06-2019 30.1 (17:20) 13.7 (00:00) 21.9 9.17 (18:50) 5.83 (17:50) 0 0 0 0 0
15-06-2019 29.7 (19:10) 11.5 (00:00) 20.6 6.39 (18:40) 3.89 (22:20) 0 0 0 0 0
14-06-2019 26.1 (18:20) 16.5 (00:00) 21.3 12.22 (16:20) 8.33 (20:40) 0 0 0 0 0
13-06-2019 29.4 (18:20) 15.6 (00:00) 22.5 11.11 (20:20) 7.22 (21:00) 0 0 0 0 0
12-06-2019 30.5 (18:00) 13.5 (00:00) 22 9.44 (22:00) 5.83 (22:40) 0 0 0 0 0
11-06-2019 30.8 (18:00) 12.1 (00:00) 21.4 11.94 (18:10) 6.39 (18:30) 0 0 0 0 0
10-06-2019 29.5 (16:50) 15 (00:00) 22.3 14.17 (18:20) 8.33 (18:20) 0 0 0 0 0
09-06-2019 30.1 (17:30) 15.2 (00:00) 22.7 13.06 (18:20) 7.78 (18:20) 0 0 0 0 0
08-06-2019 31 (15:50) 13 (00:00) 22 10 (20:10) 6.67 (20:30) 0 0 0 0 0
07-06-2019 28.5 (18:30) 16.9 (00:00) 22.7 8.61 (16:20) 4.72 (04:20) 0 0 0 0 0
06-06-2019 26.7 (17:30) 13.4 (00:00) 20.1 12.22 (20:30) 7.22 (20:00) 0 0 0 0 0
05-06-2019 27.1 (18:20) 14 (00:00) 20.6 9.72 (15:10) 5.28 (03:10) 0 0 0 0 0
04-06-2019 31 (16:30) 14.6 (00:00) 22.8 13.33 (17:30) 8.61 (17:50) 0 0 0 0 0
03-06-2019 35.6 (18:40) 15.8 (00:00) 25.7 10.28 (00:10) 7.22 (00:10) 0 0 0 0 0
02-06-2019 36.8 (18:50) 15.9 (00:00) 26.3 10.28 (23:40) 6.94 (23:30) 0 0 0 0 0
01-06-2019 34.7 (17:20) 17.9 (00:00) 26.3 9.17 (15:10) 5.83 (16:10) 0 0 0 0 0
31-05-2019 34.1 (17:30) 15.2 (00:00) 24.6 10.28 (16:00) 6.39 (16:00) 0 0 0 0 0
30-05-2019 32.7 (17:30) 17.2 (00:00) 25 11.67 (11:10) 7.78 (10:40) 0 0 0 0 0
29-05-2019 34.9 (17:50) 16.1 (00:00) 25.5 12.78 (09:30) 8.33 (09:40) 0 0 0 0 0
28-05-2019 36.3 (17:30) 15.9 (00:00) 26.1 11.39 (18:50) 7.5 (19:00) 0 0 0 0 0
27-05-2019 35.1 (17:00) 14.3 (00:00) 24.7 12.5 (20:10) 7.22 (20:10) 0 0 0 0 0
26-05-2019 34 (19:30) 14.2 (00:00) 24.1 9.17 (21:40) 5.56 (21:10) 0 0 0 0 0

Gráficas

Temp. máximas Temp. mínimas Temp. medias Precipitaciones Rachas de viento máximas Velocidades máximas media en intervalos de 10 minutos

Datos horarios

Fecha y hora oficial Temperatura (ºC) Velocidad del viento (km/h) Dirección del viento Racha (km/h) Dirección de racha Precipitación (mm) Presión (hPa) Tendencia (hPa) Humedad (%)
2019-06-24 23:00:00 24.6 13 Sudoeste 32 Sudoeste 0 -- -- 61
2019-06-24 22:00:00 26.5 14 Sudoeste 27 Sudoeste 0 -- -- 53
2019-06-24 21:00:00 28.7 17 Sudoeste 31 Sudoeste 0 -- -- 45
2019-06-24 20:00:00 29.5 21 Sudoeste 35 Sudoeste 0 -- -- 44
2019-06-24 19:00:00 30.4 22 Sudoeste 36 Sudoeste 0 -- -- 42
2019-06-24 18:00:00 30.2 21 Sudoeste 36 Sudoeste 0 -- -- 44
2019-06-24 17:00:00 30.4 17 Oeste 32 Sudoeste 0 -- -- 44
2019-06-24 16:00:00 30.2 15 Sudoeste 28 Sudoeste 0 -- -- 37
2019-06-24 15:00:00 28.7 17 Sudoeste 29 Oeste 0 -- -- 32
2019-06-24 14:00:00 27.7 14 Sudoeste 29 Sudoeste 0 -- -- 43
2019-06-24 13:00:00 27.1 14 Oeste 24 Sudoeste 0 -- -- 46
2019-06-24 12:00:00 25.3 10 Sudoeste 22 Oeste 0 -- -- 51
2019-06-24 11:00:00 23.6 6 Oeste 16 Sudoeste 0 -- -- 60
2019-06-24 10:00:00 21.7 5 Sudoeste 14 Sur 0 -- -- 70
2019-06-24 09:00:00 20.6 5 Sudoeste 13 Sudoeste 0 -- -- 75
2019-06-24 08:00:00 19.9 4 Sudoeste 9 Sudoeste 0 -- -- 78
2019-06-24 07:00:00 19.4 8 Sudoeste 15 Sudoeste 0 -- -- 83
2019-06-24 06:00:00 19.3 4 Sudoeste 9 Sudoeste 0 -- -- 82
2019-06-24 05:00:00 19.3 4 Sudoeste 10 Sudoeste 0 -- -- 77
2019-06-24 04:00:00 20.3 5 Sudoeste 15 Sudoeste 0 -- -- 65
2019-06-24 03:00:00 21.1 6 Sudoeste 13 Sudoeste 0 -- -- 53
2019-06-24 02:00:00 22 6 Sudoeste 11 Sur 0 -- -- 48
2019-06-24 01:00:00 22.6 6 Sudoeste 17 Sudoeste 0 -- -- 51
2019-06-24 00:00:00 23.8 11 Sudoeste 17 Sudoeste 0 -- -- 51
2019-06-23 23:00:00 25.7 10 Sudoeste 24 Sudoeste 0 -- -- 46
2019-06-23 22:00:00 27.5 19 Sudoeste 31 Sudoeste 0 -- -- 45
2019-06-23 21:00:00 29.5 15 Oeste 28 Oeste 0 -- -- 38
2019-06-23 20:00:00 30.9 18 Oeste 31 Sudoeste 0 -- -- 36
2019-06-23 19:00:00 31.7 17 Oeste 28 Oeste 0 -- -- 34
2019-06-23 18:00:00 31.9 16 Oeste 27 Sudoeste 0 -- -- 33
2019-06-23 17:00:00 31.4 15 Oeste 24 Oeste 0 -- -- 32
2019-06-23 16:00:00 31.6 13 Oeste 30 Sudoeste 0 -- -- 30
2019-06-23 15:00:00 30.4 13 Sudoeste 23 Oeste 0 -- -- 31
2019-06-23 14:00:00 28.9 8 Sudoeste 23 Sudoeste 0 -- -- 38
2019-06-23 13:00:00 27.5 13 Sudoeste 22 Oeste 0 -- -- 45
2019-06-23 12:00:00 25.8 7 Oeste 15 Noroeste 0 -- -- 43
2019-06-23 11:00:00 23.8 5 Oeste 12 Oeste 0 -- -- 47
2019-06-23 10:00:00 22.4 4 Este 7 Este 0 -- -- 54
2019-06-23 09:00:00 20 5 Nordeste 9 Este 0 -- -- 61
2019-06-23 08:00:00 16.8 4 Nordeste 8 Este 0 -- -- 71
2019-06-23 07:00:00 16 4 Este 6 Nordeste 0 -- -- 73
2019-06-23 06:00:00 16.8 4 Este 9 Sudeste 0 -- -- 68
2019-06-23 05:00:00 17.1 8 Este 9 Este 0 -- -- 67
2019-06-23 04:00:00 18 0 Calma 5 Sudoeste 0 -- -- 62
2019-06-23 03:00:00 19.6 3 Oeste 14 Sudoeste 0 -- -- 55
2019-06-23 02:00:00 21.2 9 Sudoeste 20 Sudoeste 0 -- -- 49
2019-06-23 01:00:00 22.2 13 Sudoeste 22 Sudoeste 0 -- -- 54
2019-06-23 00:00:00 23.8 12 Sudoeste 22 Sudoeste 0 -- -- 47
2019-06-22 23:00:00 25.4 13 Sudoeste 26 Sudoeste 0 -- -- 42
2019-06-22 22:00:00 27.6 12 Sudoeste 30 Sudoeste 0 -- -- 36
2019-06-22 21:00:00 29.8 20 Sudoeste 33 Sudoeste 0 -- -- 30
2019-06-22 20:00:00 32.1 18 Sudoeste 32 Sudoeste 0 -- -- 28
2019-06-22 19:00:00 33.4 14 Oeste 26 Oeste 0 -- -- 27
2019-06-22 18:00:00 33.8 15 Oeste 26 Oeste 0 -- -- 20
2019-06-22 17:00:00 33.5 9 Oeste 21 Oeste 0 -- -- 23
2019-06-22 16:00:00 32.7 12 Oeste 23 Oeste 0 -- -- 24
2019-06-22 15:00:00 31.4 11 Sudoeste 21 Oeste 0 -- -- 26
2019-06-22 14:00:00 29.9 9 Oeste 18 Oeste 0 -- -- 33
2019-06-22 13:00:00 27.7 9 Oeste 19 Oeste 0 -- -- 38
2019-06-22 12:00:00 25.8 6 Oeste 14 Oeste 0 -- -- 44
2019-06-22 11:00:00 24.2 4 Sudoeste 12 Oeste 0 -- -- 49
2019-06-22 10:00:00 22.8 2 Este 12 Sudeste 0 -- -- 52
2019-06-22 09:00:00 20.1 8 Este 13 Este 0 -- -- 60
2019-06-22 08:00:00 16.5 6 Este 9 Este 0 -- -- 72
2019-06-22 07:00:00 15.3 4 Sudeste 6 Sudeste 0 -- -- 73
2019-06-22 06:00:00 15.9 4 Sudeste 6 Sudeste 0 -- -- 73
2019-06-22 05:00:00 16.6 4 Este 6 Sudeste 0 -- -- 72
2019-06-22 04:00:00 17.3 0 Calma 5 Norte 0 -- -- 68
2019-06-22 03:00:00 18.2 3 Oeste 4 Oeste 0 -- -- 64
2019-06-22 02:00:00 19.6 3 Oeste 6 Oeste 0 -- -- 61
2019-06-22 01:00:00 21.1 3 Sur 16 Sudoeste 0 -- -- 55
2019-06-22 00:00:00 22.5 10 Sudoeste 26 Sudoeste 0 -- -- 50
2019-06-21 23:00:00 24.3 15 Sudoeste 29 Sudoeste 0 -- -- 47
2019-06-21 22:00:00 26.8 13 Sudoeste 27 Sudoeste 0 -- -- 38
2019-06-21 21:00:00 29.3 17 Sudoeste 31 Sudoeste 0 -- -- 32
2019-06-21 20:00:00 31 17 Sudoeste 26 Sudoeste 0 -- -- 28
2019-06-21 19:00:00 32.3 12 Sudoeste 22 Sudoeste 0 -- -- 21
2019-06-21 18:00:00 31.8 10 Sudoeste 20 Sudoeste 0 -- -- 22
2019-06-21 17:00:00 31.3 10 Sudoeste 23 Sur 0 -- -- 22
2019-06-21 16:00:00 30.5 8 Noroeste 19 Noroeste 0 -- -- 24
2019-06-21 15:00:00 28.9 6 Noroeste 20 Oeste 0 -- -- 31
2019-06-21 14:00:00 26.9 9 Sudoeste 15 Oeste 0 -- -- 32
2019-06-21 13:00:00 25.9 5 Nordeste 18 Sudoeste 0 -- -- 37
2019-06-21 12:00:00 24.4 5 Sur 13 Oeste 0 -- -- 43
2019-06-21 11:00:00 23.2 6 Noroeste 13 Nordeste 0 -- -- 47
2019-06-21 10:00:00 21.3 7 Norte 14 Nordeste 0 -- -- 52
2019-06-21 09:00:00 18.7 9 Norte 15 Norte 0 -- -- 60
2019-06-21 08:00:00 15.5 4 Nordeste 7 Nordeste 0 -- -- 81
2019-06-21 07:00:00 14.7 3 Nordeste 5 Nordeste 0 -- -- 76
2019-06-21 06:00:00 15.8 4 Nordeste 7 Nordeste 0 -- -- 76
2019-06-21 05:00:00 17.1 3 Sur 8 Sur 0 -- -- 72
2019-06-21 04:00:00 17.8 4 Sur 8 Sur 0 -- -- 69
2019-06-21 03:00:00 18 4 Sur 5 Sudoeste 0 -- -- 68
2019-06-21 02:00:00 19.1 3 Sudoeste 7 Oeste 0 -- -- 67
2019-06-21 01:00:00 20 0 Calma 24 Sudoeste 0 -- -- 63
2019-06-21 00:00:00 21 14 Sudoeste 29 Sudoeste 0 -- -- 58
2019-06-20 23:00:00 22.1 16 Sudoeste 32 Sudoeste 0 -- -- 53
2019-06-20 22:00:00 23.2 18 Sudoeste 36 Sudoeste 0 -- -- 49
2019-06-20 21:00:00 24.8 21 Sudoeste 40 Sudoeste 0 -- -- 44
2019-06-20 20:00:00 26.3 23 Sudoeste 41 Sudoeste 0 -- -- 41
2019-06-20 19:00:00 27.2 24 Sudoeste 42 Sudoeste 0 -- -- 41
2019-06-20 18:00:00 28.6 19 Sudoeste 37 Sudoeste 0 -- -- 39
2019-06-20 17:00:00 28.4 15 Sudoeste 28 Sudoeste 0 -- -- 35
2019-06-20 16:00:00 27.9 12 Sudoeste 27 Sudoeste 0 -- -- 39
2019-06-20 15:00:00 27.2 13 Sudoeste 28 Oeste 0 -- -- 39
2019-06-20 14:00:00 26.4 15 Oeste 30 Sudoeste 0 -- -- 41
2019-06-20 13:00:00 25.6 10 Sudoeste 23 Sudoeste 0 -- -- 44
2019-06-20 12:00:00 24.3 11 Sudoeste 22 Sudoeste 0 -- -- 49
2019-06-20 11:00:00 22.9 6 Oeste 11 Sudoeste 0 -- -- 57
2019-06-20 10:00:00 21.2 3 Sur 8 Sur 0 -- -- 67
2019-06-20 09:00:00 19.1 2 Sudeste 4 Nordeste 0 -- -- 77
2019-06-20 08:00:00 17.3 2 Norte 5 Nordeste 0 -- -- 85
2019-06-20 07:00:00 16.5 2 Norte 4 Nordeste 0 -- -- 84
2019-06-20 06:00:00 16.9 0 Calma 4 Nordeste 0 -- -- 81
2019-06-20 05:00:00 17.7 2 Este 5 Sur 0 -- -- 79
2019-06-20 04:00:00 18.4 4 Sudoeste 15 Sudoeste 0 -- -- 79
2019-06-20 03:00:00 19.1 9 Sudoeste 16 Sur 0 -- -- 78
2019-06-20 02:00:00 19.6 7 Sudoeste 24 Oeste 0 -- -- 76
2019-06-20 01:00:00 20.1 13 Sudoeste 23 Sudoeste 0 -- -- 71
2019-06-20 00:00:00 21.1 16 Sudoeste 29 Sur 0 -- -- 64
2019-06-19 23:00:00 22.2 16 Sudoeste 35 Sudoeste 0 -- -- 58
2019-06-19 22:00:00 23.9 23 Sudoeste 38 Sudoeste 0 -- -- 54
2019-06-19 21:00:00 26.2 24 Sudoeste 43 Sudoeste 0 -- -- 47
2019-06-19 20:00:00 28.1 23 Sudoeste 40 Sudoeste 0 -- -- 42
2019-06-19 19:00:00 30 15 Sudoeste 33 Sudoeste 0 -- -- 35
2019-06-19 18:00:00 30.5 14 Oeste 30 Oeste 0 -- -- 31
2019-06-19 17:00:00 29.9 14 Sudoeste 31 Sudoeste 0 -- -- 33
2019-06-19 16:00:00 28.8 14 Oeste 27 Oeste 0 -- -- 36
2019-06-19 15:00:00 27.7 9 Sudoeste -- -- -- -- -- 40
2019-06-19 14:00:00 -- -- -- -- -- -- -- -- --
2019-06-19 13:00:00 -- -- -- -- -- -- -- -- --
2019-06-19 12:00:00 -- -- -- -- -- -- -- -- --
2019-06-19 11:00:00 -- -- -- -- -- -- -- -- --
2019-06-19 10:00:00 -- -- -- -- -- -- -- -- --
2019-06-19 09:00:00 -- -- -- -- -- -- -- -- --
2019-06-19 08:00:00 -- -- -- -- -- -- -- -- --
2019-06-19 07:00:00 -- -- -- -- -- -- -- -- --
2019-06-19 06:00:00 -- -- -- -- -- -- -- -- --
2019-06-19 05:00:00 -- -- -- -- -- -- -- -- --
2019-06-19 04:00:00 -- -- -- -- -- -- -- -- --
2019-06-19 03:00:00 -- -- -- -- -- -- -- -- --
2019-06-19 02:00:00 -- -- -- -- -- -- -- -- --
2019-06-19 01:00:00 -- -- -- -- -- -- -- -- --
2019-06-19 00:00:00 -- -- -- -- -- -- -- -- --
2019-06-18 23:00:00 -- -- -- -- -- -- -- -- --
2019-06-18 22:00:00 -- -- -- -- -- -- -- -- --
2019-06-18 21:00:00 -- -- -- -- -- -- -- -- --
2019-06-18 20:00:00 -- -- -- -- -- -- -- -- --
2019-06-18 19:00:00 26.9 23 Oeste 42 Oeste 0 -- -- 45
2019-06-18 18:00:00 27.4 21 Oeste 37 Oeste 0 -- -- 44
2019-06-18 17:00:00 27.1 22 Oeste 37 Sudoeste 0 -- -- 42
2019-06-18 16:00:00 27.1 19 Sudoeste 36 Oeste 0 -- -- 43
2019-06-18 15:00:00 26.1 15 Sudoeste 31 Oeste 0 -- -- 43
2019-06-18 14:00:00 24.8 16 Sudoeste 30 Sudoeste 0 -- -- 43
2019-06-18 13:00:00 23.5 12 Oeste 29 Sudoeste 0 -- -- 47
2019-06-18 12:00:00 21.9 12 Sudoeste 24 Sudoeste 0 -- -- 54
2019-06-18 11:00:00 19.7 14 Sudoeste 26 Sudoeste 0 -- -- 63
2019-06-18 10:00:00 18.6 12 Oeste 24 Oeste 0 -- -- 69
2019-06-18 09:00:00 16.3 4 Oeste 7 Sudoeste 0 -- -- 79
2019-06-18 08:00:00 14.2 3 Norte 4 Norte 0 -- -- 84
2019-06-18 07:00:00 14.7 0 Calma 8 Sur 0 -- -- 83
2019-06-18 06:00:00 15.4 6 Sur 12 Sur 0 -- -- 82
2019-06-18 05:00:00 15.6 7 Sur 11 Sudoeste 0 -- -- 77
2019-06-18 04:00:00 16.3 6 Sudoeste 10 Sudoeste 0 -- -- 74
2019-06-18 03:00:00 17.1 5 Sudoeste 9 Sudoeste 0 -- -- 67
2019-06-18 02:00:00 18.7 8 Sur 15 Sur 0 -- -- 57
2019-06-18 01:00:00 20.2 9 Sudoeste 17 Sudoeste 0 -- -- 48
2019-06-18 00:00:00 21.7 9 Sudoeste 15 Sudoeste 0 -- -- 42
2019-06-17 23:00:00 23 8 Sudoeste 15 Sudoeste 0 -- -- 42
2019-06-17 22:00:00 25.4 9 Sudoeste 26 Oeste 0 -- -- 27
2019-06-17 21:00:00 28.4 17 Oeste 31 Sudoeste 0 -- -- 27
2019-06-17 20:00:00 29.5 22 Sudoeste 33 Sudoeste 0 -- -- 29
2019-06-17 19:00:00 30.7 22 Oeste 38 Oeste 0 -- -- 26
2019-06-17 18:00:00 30.6 19 Sudoeste 31 Oeste 0 -- -- 25
2019-06-17 17:00:00 30.3 14 Oeste 29 Oeste 0 -- -- 26
2019-06-17 16:00:00 30.2 13 Oeste 30 Oeste 0 -- -- 26
2019-06-17 15:00:00 29.3 13 Oeste 24 Oeste 0 -- -- 27
2019-06-17 14:00:00 28 8 Oeste 19 Noroeste 0 -- -- 30
2019-06-17 13:00:00 26 5 Noroeste 14 Sur 0 -- -- 34
2019-06-17 12:00:00 24.6 3 Norte 12 Noroeste 0 -- -- 41
2019-06-17 11:00:00 22.2 4 Sur 9 Sudoeste 0 -- -- 51
2019-06-17 10:00:00 19.9 5 Nordeste 10 Este 0 -- -- 62
2019-06-17 09:00:00 16.9 3 Nordeste 7 Nordeste 0 -- -- 70
2019-06-17 08:00:00 13.6 0 Calma 8 Nordeste 0 -- -- 76
2019-06-17 07:00:00 13 4 Nordeste 5 Nordeste 0 -- -- 80
2019-06-17 06:00:00 13.9 0 Calma 8 Nordeste 0 -- -- 79
2019-06-17 05:00:00 14.8 4 Nordeste 7 Este 0 -- -- 76
2019-06-17 04:00:00 16 0 Calma 8 Sudoeste 0 -- -- 71
2019-06-17 03:00:00 17 3 Oeste 11 Sur 0 -- -- 68
2019-06-17 02:00:00 18.6 6 Sur 13 Sudoeste 0 -- -- 60
2019-06-17 01:00:00 19.6 9 Sudoeste 15 Sudoeste 0 -- -- 57
2019-06-17 00:00:00 21.5 9 Sudoeste 19 Sudoeste 0 -- -- 49
2019-06-16 23:00:00 23.4 11 Sudoeste 20 Sudoeste 0 -- -- 37
2019-06-16 22:00:00 25.2 11 Sudoeste 24 Sur 0 -- -- 33
2019-06-16 21:00:00 27.9 17 Sudoeste 27 Oeste 0 -- -- 30
2019-06-16 20:00:00 29.1 19 Oeste 31 Oeste 0 -- -- 27
2019-06-16 19:00:00 30 19 Oeste 33 Oeste 0 -- -- 26
2019-06-16 18:00:00 29.6 19 Sudoeste 32 Sudoeste 0 -- -- 30
2019-06-16 17:00:00 29.8 17 Sudoeste 28 Oeste 0 -- -- 25
2019-06-16 16:00:00 28.8 14 Sudoeste 24 Sudoeste 0 -- -- 31
2019-06-16 15:00:00 27.2 11 Oeste 23 Oeste 0 -- -- 35
2019-06-16 14:00:00 25.4 11 Sudoeste 16 Sudoeste 0 -- -- 39
2019-06-16 13:00:00 24.8 6 Oeste 11 Sudoeste 0 -- -- 38
2019-06-16 12:00:00 24.2 3 Nordeste 12 Este 0 -- -- 40
2019-06-16 11:00:00 22 6 Este 11 Este 0 -- -- 46
2019-06-16 10:00:00 20 9 Este 14 Este 0 -- -- 52
2019-06-16 09:00:00 16.7 7 Este 11 Este 0 -- -- 63
2019-06-16 08:00:00 14.5 4 Este 6 Este 0 -- -- 73
2019-06-16 07:00:00 13.7 4 Este 5 Este 0 -- -- 73
2019-06-16 06:00:00 14 4 Sudeste 7 Este 0 -- -- 72
2019-06-16 05:00:00 14.5 6 Nordeste 8 Nordeste 0 -- -- 68
2019-06-16 04:00:00 15.7 3 Norte 4 Noroeste 0 -- -- 65
2019-06-16 03:00:00 17 3 Sudeste 8 Sudeste 0 -- -- 60
2019-06-16 02:00:00 18.4 7 Sur 13 Sur 0 -- -- 53
2019-06-16 01:00:00 19.7 6 Sur 10 Sur 0 -- -- 49
2019-06-16 00:00:00 21.3 5 Sudoeste 13 Sudoeste 0 -- -- 45
2019-06-15 23:00:00 23.4 8 Sudoeste 21 Oeste 0 -- -- 38
2019-06-15 22:00:00 25 12 Sudoeste 19 Sur 0 -- -- 37
2019-06-15 21:00:00 28.2 5 Sudoeste 16 Oeste 0 -- -- 26
2019-06-15 20:00:00 29.6 10 Oeste 19 Oeste 0 -- -- 23
2019-06-15 19:00:00 29.5 8 Sudoeste 23 Oeste 0 -- -- 23
2019-06-15 18:00:00 29.2 7 Sudoeste 17 Oeste 0 -- -- 23
2019-06-15 17:00:00 28.6 5 Este 18 Norte 0 -- -- 24
2019-06-15 16:00:00 27.8 6 Este 18 Sudoeste 0 -- -- 26
2019-06-15 15:00:00 26.4 9 Oeste 17 Oeste 0 -- -- 27
2019-06-15 14:00:00 25.3 6 Oeste 17 Noroeste 0 -- -- 29
2019-06-15 13:00:00 23.9 9 Oeste 20 Norte 0 -- -- 33
2019-06-15 12:00:00 22.8 6 Norte 12 Norte 0 -- -- 38
2019-06-15 11:00:00 21.2 6 Este 14 Este 0 -- -- 45
2019-06-15 10:00:00 19.1 5 Este 11 Este 0 -- -- 52
2019-06-15 09:00:00 16 6 Este 9 Nordeste 0 -- -- 67
2019-06-15 08:00:00 12.8 5 Este 8 Este 0 -- -- 80
2019-06-15 07:00:00 11.5 4 Nordeste 6 Este 0 -- -- 80
2019-06-15 06:00:00 12.1 5 Este 6 Este 0 -- -- 78
2019-06-15 05:00:00 12.8 3 Este 6 Este 0 -- -- 76
2019-06-15 04:00:00 13.6 2 Este 4 Este 0 -- -- 73
2019-06-15 03:00:00 14.5 2 Norte 10 Sudoeste 0 -- -- 70
2019-06-15 02:00:00 16.2 6 Sudoeste 13 Sudoeste 0 -- -- 63
2019-06-15 01:00:00 16.8 7 Sudoeste 15 Sudoeste 0 -- -- 57
2019-06-15 00:00:00 18 7 Sudoeste 22 Oeste 0 -- -- 50
2019-06-14 23:00:00 19 14 Oeste 31 Sudoeste 0 -- -- 46
2019-06-14 22:00:00 20.1 24 Sudoeste 41 Sudoeste 0 -- -- 43
2019-06-14 21:00:00 21.9 28 Sudoeste 44 Sudoeste 0 -- -- 38
2019-06-14 20:00:00 23.6 27 Sudoeste 42 Sudoeste 0 -- -- 36
2019-06-14 19:00:00 25.4 19 Sudoeste 39 Oeste 0 -- -- 28
2019-06-14 18:00:00 25.6 20 Oeste 40 Sudoeste 0 -- -- 26
2019-06-14 17:00:00 25.6 22 Oeste 44 Noroeste 0 -- -- 27
2019-06-14 16:00:00 25 20 Sudoeste 41 Sudoeste 0 -- -- 27
2019-06-14 15:00:00 23.6 21 Sudoeste 37 Sudoeste 0 -- -- 28
2019-06-14 14:00:00 22.6 26 Sudoeste 39 Sudoeste 0 -- -- 29
2019-06-14 13:00:00 22.6 20 Oeste 36 Oeste 0 -- -- 35
2019-06-14 12:00:00 20.9 17 Sudoeste 32 Sudoeste 0 -- -- 40
2019-06-14 11:00:00 20 18 Oeste 28 Oeste 0 -- -- 47
2019-06-14 10:00:00 18.7 13 Sudoeste 23 Sudoeste 0 -- -- 49
2019-06-14 09:00:00 17.6 14 Sudoeste 29 Sudoeste 0 -- -- 68
2019-06-14 08:00:00 16.9 15 Sur 23 Sudoeste 0 -- -- 71
2019-06-14 07:00:00 16.9 12 Sudoeste 22 Sudoeste 0 -- -- 70
2019-06-14 06:00:00 17.1 6 Sudoeste 14 Sudoeste 0 -- -- 73
2019-06-14 05:00:00 17.3 8 Sudoeste 15 Sudoeste 0 -- -- 66
2019-06-14 04:00:00 18.1 6 Sudoeste 18 Sudoeste 0 -- -- 58
2019-06-14 03:00:00 19.1 12 Sudoeste 27 Sudoeste 0 -- -- 54
2019-06-14 02:00:00 20.1 14 Sudoeste 27 Sudoeste 0 -- -- 50
2019-06-14 01:00:00 20.8 10 Sudoeste 22 Sudoeste 0 -- -- 39
2019-06-14 00:00:00 21.5 15 Sudoeste 31 Sudoeste 0 -- -- 33
2019-06-13 23:00:00 22.9 22 Oeste 33 Oeste 0 -- -- 28
2019-06-13 22:00:00 25 15 Oeste 37 Sudoeste 0 -- -- 27
2019-06-13 21:00:00 27.4 26 Oeste 40 Sudoeste 0 -- -- 23
2019-06-13 20:00:00 28.2 21 Sudoeste 30 Oeste 0 -- -- 22
2019-06-13 19:00:00 28.5 16 Sudoeste 32 Sudoeste 0 -- -- 24
2019-06-13 18:00:00 29.2 15 Sudoeste 27 Sudoeste 0 -- -- 26
2019-06-13 17:00:00 28.6 9 Oeste 31 Oeste 0 -- -- 30
2019-06-13 16:00:00 28 12 Sudoeste 28 Sudoeste 0 -- -- 33
2019-06-13 15:00:00 27.3 10 Sudoeste 24 Oeste 0 -- -- 35
2019-06-13 14:00:00 26.3 8 Sur 23 Sudoeste 0 -- -- 37
2019-06-13 13:00:00 25.2 10 Sudoeste 21 Sudoeste 0 -- -- 41
2019-06-13 12:00:00 24.2 13 Sur 22 Sur 0 -- -- 43
2019-06-13 11:00:00 22.9 6 Sur 12 Sur 0 -- -- 47
2019-06-13 10:00:00 21.1 6 Nordeste 15 Nordeste 0 -- -- 66
2019-06-13 09:00:00 19.1 5 Nordeste 7 Nordeste 0 -- -- 77
2019-06-13 08:00:00 16.3 4 Este 8 Nordeste 0 -- -- 87
2019-06-13 07:00:00 15.7 7 Nordeste 9 Este 0 -- -- 85
2019-06-13 06:00:00 16.1 6 Este 9 Este 0 -- -- 84
2019-06-13 05:00:00 16.7 3 Nordeste 14 Sudoeste 0 -- -- 82
2019-06-13 04:00:00 18.1 8 Sudoeste 14 Sudoeste 0 -- -- 80
2019-06-13 03:00:00 18.7 10 Sudoeste 23 Sudoeste 0 -- -- 77
2019-06-13 02:00:00 19.5 14 Sudoeste 25 Sudoeste 0 -- -- 68
2019-06-13 01:00:00 20.4 11 Sudoeste 28 Sudoeste 0 -- -- 60
2019-06-13 00:00:00 22 15 Sudoeste 30 Oeste 0 -- -- 51
2019-06-12 23:00:00 23.4 17 Oeste 32 Sudoeste 0 -- -- 49
2019-06-12 22:00:00 25.7 21 Oeste 34 Oeste 0 -- -- 39
2019-06-12 21:00:00 28.7 14 Sudoeste 23 Sudoeste 0 -- -- 32
2019-06-12 20:00:00 30.2 9 Sudoeste 19 Sudoeste 0 -- -- 23
2019-06-12 19:00:00 30.3 8 Oeste 18 Oeste 0 -- -- 22
2019-06-12 18:00:00 30.5 8 Sudoeste 22 Oeste 0 -- -- 21
2019-06-12 17:00:00 29.7 10 Oeste 24 Oeste 0 -- -- 21
2019-06-12 16:00:00 28.9 12 Oeste 23 Sudoeste 0 -- -- 23
2019-06-12 15:00:00 27.9 12 Oeste 22 Oeste 0 -- -- 29
2019-06-12 14:00:00 27.2 11 Sudoeste 25 Este 0 -- -- 32
2019-06-12 13:00:00 25.9 11 Sudoeste 22 Sudoeste 0 -- -- 38
2019-06-12 12:00:00 24.8 8 Sur 16 Sudeste 0 -- -- 40
2019-06-12 11:00:00 23.1 6 Sudeste 14 Sudeste 0 -- -- 51
2019-06-12 10:00:00 21.2 7 Este 13 Este 0 -- -- 56
2019-06-12 09:00:00 18.2 8 Este 13 Nordeste 0 -- -- 64
2019-06-12 08:00:00 15.1 7 Este 11 Este 0 -- -- 77
2019-06-12 07:00:00 13.5 8 Este 10 Este 0 -- -- 81
2019-06-12 06:00:00 14.1 6 Este 12 Este 0 -- -- 79
2019-06-12 05:00:00 14.6 8 Este 12 Este 0 -- -- 79
2019-06-12 04:00:00 15.5 6 Este 8 Este 0 -- -- 75
2019-06-12 03:00:00 16.5 3 Este 10 Norte 0 -- -- 72
2019-06-12 02:00:00 18.1 8 Oeste 15 Sudoeste 0 -- -- 66
2019-06-12 01:00:00 19.3 12 Sudoeste 23 Sudoeste 0 -- -- 62
2019-06-12 00:00:00 20.4 12 Sudoeste 22 Sur 0 -- -- 59
2019-06-11 23:00:00 21.7 9 Sudoeste 19 Sudoeste 0 -- -- 54
2019-06-11 22:00:00 23.1 11 Sudoeste 28 Sudoeste 0 -- -- 49
2019-06-11 21:00:00 25.1 17 Sudoeste 31 Sudoeste 0 -- -- 44
2019-06-11 20:00:00 26.9 19 Sudoeste 30 Sudoeste 0 -- -- 39
2019-06-11 19:00:00 28.1 19 Sudoeste 43 Noroeste 0 -- -- 33
2019-06-11 18:00:00 30.8 15 Noroeste 31 Noroeste 0 -- -- 19
2019-06-11 17:00:00 30.4 20 Norte 33 Norte 0 -- -- 21
2019-06-11 16:00:00 29.9 15 Norte 34 Noroeste 0 -- -- 25
2019-06-11 15:00:00 28.2 9 Noroeste 27 Noroeste 0 -- -- 27
2019-06-11 14:00:00 27.5 16 Noroeste 30 Norte 0 -- -- 29
2019-06-11 13:00:00 25.4 10 Oeste 25 Oeste 0 -- -- 33
2019-06-11 12:00:00 23.6 5 Noroeste 18 Noroeste 0 -- -- 34
2019-06-11 11:00:00 22.1 7 Noroeste 19 Noroeste 0 -- -- 36
2019-06-11 10:00:00 19.6 10 Noroeste 16 Noroeste 0 -- -- 40
2019-06-11 09:00:00 16.8 6 Norte 12 Norte 0 -- -- 52
2019-06-11 08:00:00 13 3 Noroeste 9 Norte 0 -- -- 80
2019-06-11 07:00:00 12.3 2 Norte 6 Norte 0 -- -- 82
2019-06-11 06:00:00 12.8 0 Calma 6 Sur 0 -- -- 80
2019-06-11 05:00:00 13.9 0 Calma 5 Sudeste 0 -- -- 76
2019-06-11 04:00:00 14.7 2 Sur 5 Oeste 0 -- -- 73
2019-06-11 03:00:00 15.5 3 Sur 8 Oeste 0 -- -- 71
2019-06-11 02:00:00 16.9 6 Sudoeste 11 Sudoeste 0 -- -- 67
2019-06-11 01:00:00 18 8 Sudoeste 20 Sudoeste 0 -- -- 63
2019-06-11 00:00:00 18.8 9 Sudoeste 29 Sudoeste 0 -- -- 58
2019-06-10 23:00:00 19.5 14 Sudoeste 38 Sudoeste 0 -- -- 55
2019-06-10 22:00:00 20.5 18 Sudoeste 38 Sudoeste 0 -- -- 52
2019-06-10 21:00:00 23 24 Sudoeste 40 Sudoeste 0 -- -- 42
2019-06-10 20:00:00 25.4 23 Sudoeste 48 Sudoeste 0 -- -- 37
2019-06-10 19:00:00 26.6 27 Sudoeste 51 Sudoeste 0 -- -- 34
2019-06-10 18:00:00 27.4 28 Sudoeste 42 Sudoeste 0 -- -- 31
2019-06-10 17:00:00 29.3 15 Sudoeste 35 Sudoeste 0 -- -- 21
2019-06-10 16:00:00 28.4 11 Sudoeste 29 Sudoeste 0 -- -- 22
2019-06-10 15:00:00 27.4 9 Sudoeste 28 Sur 0 -- -- 26
2019-06-10 14:00:00 26.2 12 Sudoeste 24 Oeste 0 -- -- 26
2019-06-10 13:00:00 25.4 9 Sudoeste 20 Oeste 0 -- -- 27
2019-06-10 12:00:00 23.4 6 Sudoeste 15 Oeste 0 -- -- 36
2019-06-10 11:00:00 21.9 10 Noroeste 19 Oeste 0 -- -- 41
2019-06-10 10:00:00 20.3 10 Oeste 16 Oeste 0 -- -- 45
2019-06-10 09:00:00 18.9 7 Noroeste 14 Noroeste 0 -- -- 50
2019-06-10 08:00:00 16.1 7 Noroeste 12 Noroeste 0 -- -- 60
2019-06-10 07:00:00 15.1 5 Noroeste 9 Noroeste 0 -- -- 60
2019-06-10 06:00:00 16.4 4 Norte 9 Noroeste 0 -- -- 55
2019-06-10 05:00:00 17.6 5 Norte 14 Noroeste 0 -- -- 51
2019-06-10 04:00:00 18.2 6 Norte 14 Noroeste 0 -- -- 47
2019-06-10 03:00:00 18.4 5 Norte 13 Noroeste 0 -- -- 48
2019-06-10 02:00:00 19 7 Oeste 15 Oeste 0 -- -- 48
2019-06-10 01:00:00 20.1 9 Sudoeste 18 Sudoeste 0 -- -- 51
2019-06-10 00:00:00 20.3 9 Sudoeste 27 Sudoeste 0 -- -- 57
2019-06-09 23:00:00 21.5 17 Sudoeste 31 Sudoeste 0 -- -- 50
2019-06-09 22:00:00 22.5 18 Sudoeste 39 Sudoeste 0 -- -- 42
2019-06-09 21:00:00 24.2 23 Sudoeste 42 Sudoeste 0 -- -- 35
2019-06-09 20:00:00 26.2 26 Sudoeste 44 Sudoeste 0 -- -- 31
2019-06-09 19:00:00 28 24 Sudoeste 47 Sudoeste 0 -- -- 26
2019-06-09 18:00:00 30.1 20 Sudoeste 37 Sudoeste 0 -- -- 17
2019-06-09 17:00:00 29.9 16 Sudoeste 33 Sur 0 -- -- 16
2019-06-09 16:00:00 29 17 Sudoeste 36 Sudoeste 0 -- -- 22
2019-06-09 15:00:00 28.1 14 Sudoeste 30 Oeste 0 -- -- 26
2019-06-09 14:00:00 26.4 14 Sudoeste 31 Sudoeste 0 -- -- 31
2019-06-09 13:00:00 24.9 15 Sudoeste 30 Sudoeste 0 -- -- 40
2019-06-09 12:00:00 23 20 Sudoeste 30 Oeste 0 -- -- 47
2019-06-09 11:00:00 22.6 20 Oeste 33 Sudoeste 0 -- -- 50
2019-06-09 10:00:00 21.4 14 Sudoeste 21 Oeste 0 -- -- 60
2019-06-09 09:00:00 19.3 2 Noroeste 5 Noroeste 0 -- -- 62
2019-06-09 08:00:00 15.9 0 Calma 8 Nordeste 0 -- -- 67
2019-06-09 07:00:00 15.6 4 Este 5 Este 0 -- -- 69
2019-06-09 06:00:00 16.4 0 Calma 5 Nordeste 0 -- -- 64
2019-06-09 05:00:00 18.5 3 Sudoeste 10 Sudoeste 0 -- -- 56
2019-06-09 04:00:00 19.3 5 Sudoeste 12 Sudoeste 0 -- -- 52
2019-06-09 03:00:00 20.3 3 Oeste 18 Sur 0 -- -- 48
2019-06-09 02:00:00 21.4 9 Sudoeste 23 Sudoeste 0 -- -- 43
2019-06-09 01:00:00 22.4 14 Sudoeste 25 Sudoeste 0 -- -- 38
2019-06-09 00:00:00 23.7 16 Sudoeste 30 Sudoeste 0 -- -- 35
2019-06-08 23:00:00 24.8 16 Sudoeste 28 Sudoeste 0 -- -- 35
2019-06-08 22:00:00 25.9 15 Sudoeste 30 Sudoeste 0 -- -- 33
2019-06-08 21:00:00 27.7 21 Sudoeste 36 Sudoeste 0 -- -- 28
2019-06-08 20:00:00 28.5 22 Oeste 35 Oeste 0 -- -- 28
2019-06-08 19:00:00 29.5 21 Sudoeste 33 Oeste 0 -- -- 26
2019-06-08 18:00:00 30.5 16 Sudoeste 30 Oeste 0 -- -- 22
2019-06-08 17:00:00 30.3 17 Sudoeste 29 Sudoeste 0 -- -- 24
2019-06-08 16:00:00 30.9 16 Oeste 28 Oeste 0 -- -- 19
2019-06-08 15:00:00 29.9 6 Oeste 23 Sudoeste 0 -- -- 18
2019-06-08 14:00:00 29.6 9 Sur 22 Sur 0 -- -- 17
2019-06-08 13:00:00 28.1 5 Sudeste 19 Este 0 -- -- 18
2019-06-08 12:00:00 26.2 9 Este 19 Este 0 -- -- 21
2019-06-08 11:00:00 24.3 8 Este 13 Nordeste 0 -- -- 26
2019-06-08 10:00:00 21.9 6 Nordeste 11 Este 0 -- -- 30
2019-06-08 09:00:00 18.5 3 Nordeste 5 Norte 0 -- -- 40
2019-06-08 08:00:00 14.3 3 Nordeste 7 Norte 0 -- -- 54
2019-06-08 07:00:00 13.1 3 Norte 6 Norte 0 -- -- 51
2019-06-08 06:00:00 14.8 5 Este 12 Norte 0 -- -- 47
2019-06-08 05:00:00 16.5 9 Norte 12 Nordeste 0 -- -- 38
2019-06-08 04:00:00 17.8 9 Nordeste 15 Nordeste 0 -- -- 33
2019-06-08 03:00:00 18.1 9 Nordeste 15 Norte 0 -- -- 31
2019-06-08 02:00:00 17.9 9 Norte 12 Norte 0 -- -- 32
2019-06-08 01:00:00 18.8 8 Norte 12 Norte 0 -- -- 30
2019-06-08 00:00:00 19.8 8 Norte 15 Norte 0 -- -- 28
2019-06-07 23:00:00 21.1 7 Norte 17 Norte 0 -- -- 28
2019-06-07 22:00:00 23.6 12 Noroeste 21 Noroeste 0 -- -- 21
2019-06-07 21:00:00 26.5 13 Noroeste 23 Noroeste 0 -- -- 18
2019-06-07 20:00:00 27.9 14 Noroeste 21 Noroeste 0 -- -- 16
2019-06-07 19:00:00 28.2 11 Oeste 26 Noroeste 0 -- -- 15
2019-06-07 18:00:00 28.1 8 Oeste 24 Norte 0 -- -- 16
2019-06-07 17:00:00 27.5 8 Norte 31 Norte 0 -- -- 18
2019-06-07 16:00:00 26.3 7 Sudeste 22 Oeste 0 -- -- 20
2019-06-07 15:00:00 25.5 8 Noroeste 21 Nordeste 0 -- -- 22
2019-06-07 14:00:00 24.5 10 Nordeste 18 Nordeste 0 -- -- 22
2019-06-07 13:00:00 22.8 9 Norte 21 Nordeste 0 -- -- 28
2019-06-07 12:00:00 21.9 9 Nordeste 23 Norte 0 -- -- 29
2019-06-07 11:00:00 20.7 10 Nordeste 20 Nordeste 0 -- -- 35
2019-06-07 10:00:00 18.8 10 Norte 23 Noroeste 0 -- -- 44
2019-06-07 09:00:00 17.2 12 Norte 18 Norte 0 -- -- 54
2019-06-07 08:00:00 16.9 12 Norte 19 Norte 0 -- -- 56
2019-06-07 07:00:00 17.2 12 Norte 21 Norte 0 -- -- 52
2019-06-07 06:00:00 17.6 12 Noroeste 25 Noroeste 0 -- -- 63
2019-06-07 05:00:00 18.3 14 Oeste 25 Oeste 0 -- -- 62
2019-06-07 04:00:00 17.9 14 Sudoeste 22 Sudoeste 0 -- -- 64
2019-06-07 03:00:00 17.3 10 Sudoeste 19 Sudoeste 0 -- -- 69
2019-06-07 02:00:00 17.4 9 Sudoeste 17 Sudoeste 0 -- -- 67
2019-06-07 01:00:00 18 6 Sudoeste 20 Sudoeste 0 -- -- 64
2019-06-07 00:00:00 18.5 16 Sudoeste 27 Sudoeste 0 -- -- 61
2019-06-06 23:00:00 19.2 15 Sudoeste 30 Sudoeste 0 -- -- 55
2019-06-06 22:00:00 20.4 20 Sudoeste 37 Sudoeste 0 -- -- 48
2019-06-06 21:00:00 22.7 21 Sudoeste 44 Sudoeste 0 -- -- 40
2019-06-06 20:00:00 24.8 26 Sudoeste 41 Sur 0 -- -- 30
2019-06-06 19:00:00 26 22 Sudoeste 40 Sudoeste 0 -- -- 23
2019-06-06 18:00:00 26.5 21 Sudoeste 40 Oeste 0 -- -- 16
2019-06-06 17:00:00 26.2 22 Sudoeste 35 Sudoeste 0 -- -- 18
2019-06-06 16:00:00 25.9 16 Sudoeste 32 Sudoeste 0 -- -- 22
2019-06-06 15:00:00 25.5 19 Oeste 31 Oeste 0 -- -- 23
2019-06-06 14:00:00 24.7 13 Oeste 30 Oeste 0 -- -- 24
2019-06-06 13:00:00 23.7 10 Sudoeste 20 Sudoeste 0 -- -- 26
2019-06-06 12:00:00 22.5 8 Sur 18 Sudeste 0 -- -- 29
2019-06-06 11:00:00 20.7 6 Sudeste 15 Sudeste 0 -- -- 35
2019-06-06 10:00:00 18.6 4 Sudeste 10 Este 0 -- -- 40
2019-06-06 09:00:00 16.6 7 Norte 10 Norte 0 -- -- 46
2019-06-06 08:00:00 14 4 Norte 9 Norte 0 -- -- 55
2019-06-06 07:00:00 13.6 7 Norte 10 Norte 0 -- -- 53
2019-06-06 06:00:00 14.1 8 Norte 13 Norte 0 -- -- 50
2019-06-06 05:00:00 14.2 5 Norte 9 Norte 0 -- -- 48
2019-06-06 04:00:00 15.5 5 Norte 12 Norte 0 -- -- 46
2019-06-06 03:00:00 16.3 3 Oeste 8 Sudoeste 0 -- -- 50
2019-06-06 02:00:00 16.7 5 Sudoeste 10 Sudoeste 0 -- -- 52
2019-06-06 01:00:00 18.1 8 Sudoeste 12 Sudoeste 0 -- -- 47
2019-06-06 00:00:00 19.1 9 Oeste 16 Sudoeste 0 -- -- 41
2019-06-05 23:00:00 19.6 7 Oeste 9 Oeste 0 -- -- 37
2019-06-05 22:00:00 21.4 7 Noroeste 15 Norte 0 -- -- 30
2019-06-05 21:00:00 24.9 10 Noroeste 22 Noroeste 0 -- -- 24
2019-06-05 20:00:00 26.4 9 Noroeste 21 Noroeste 0 -- -- 21
2019-06-05 19:00:00 27.1 11 Noroeste 25 Oeste 0 -- -- 22
2019-06-05 18:00:00 26.9 12 Noroeste 28 Noroeste 0 -- -- 21
2019-06-05 17:00:00 26 9 Norte 24 Noroeste 0 -- -- 23
2019-06-05 16:00:00 26.6 11 Norte 35 Noroeste 0 -- -- 24
2019-06-05 15:00:00 25.2 8 Noroeste 29 Norte 0 -- -- 23
2019-06-05 14:00:00 24.3 13 Norte 33 Noroeste 0 -- -- 27
2019-06-05 13:00:00 23.5 15 Noroeste 31 Noroeste 0 -- -- 28
2019-06-05 12:00:00 22 14 Noroeste 30 Norte 0 -- -- 32
2019-06-05 11:00:00 19.5 10 Oeste 22 Oeste 0 -- -- 40
2019-06-05 10:00:00 17.8 11 Oeste 22 Oeste 0 -- -- 49
2019-06-05 09:00:00 16.5 13 Oeste 21 Oeste 0 -- -- 54
2019-06-05 08:00:00 14.6 9 Oeste 15 Oeste 0 -- -- 60
2019-06-05 07:00:00 14.3 10 Oeste 18 Oeste 0 -- -- 58
2019-06-05 06:00:00 14.9 11 Oeste 17 Oeste 0 -- -- 54
2019-06-05 05:00:00 16.2 11 Noroeste 23 Noroeste 0 -- -- 47
2019-06-05 04:00:00 18 14 Noroeste 31 Norte 0 -- -- 41
2019-06-05 03:00:00 19.8 18 Noroeste 31 Noroeste 0 -- -- 46
2019-06-05 02:00:00 20.6 12 Oeste 28 Oeste 0 -- -- 48
2019-06-05 01:00:00 21.6 18 Noroeste 31 Noroeste 0 -- -- 45
2019-06-05 00:00:00 21.9 15 Oeste 36 Noroeste 0 -- -- 48
2019-06-04 23:00:00 22.8 13 Noroeste 30 Noroeste 0 -- -- 51
2019-06-04 22:00:00 24.2 18 Sudoeste 33 Sudoeste 0 -- -- 50
2019-06-04 21:00:00 25.7 21 Sudoeste 40 Sudoeste 0 -- -- 48
2019-06-04 20:00:00 27.9 23 Sudoeste 45 Oeste 0 -- -- 43
2019-06-04 19:00:00 29.2 30 Sudoeste 48 Sudoeste 0 -- -- 38
2019-06-04 18:00:00 29.5 28 Sudoeste 48 Sur 0 -- -- 41
2019-06-04 17:00:00 30.8 23 Sudoeste 43 Sudoeste 0 -- -- 32
2019-06-04 16:00:00 30.8 19 Sudoeste 35 Sudoeste 0 -- -- 29
2019-06-04 15:00:00 29.6 17 Sudoeste 31 Oeste 0 -- -- 31
2019-06-04 14:00:00 28.8 13 Sudoeste 34 Sudoeste 0 -- -- 33
2019-06-04 13:00:00 27.2 13 Sudoeste 26 Sudoeste 0 -- -- 35
2019-06-04 12:00:00 26.1 8 Sudoeste 17 Oeste 0 -- -- 36
2019-06-04 11:00:00 23.8 3 Oeste 8 Noroeste 0 -- -- 42
2019-06-04 10:00:00 21 3 Noroeste 8 Norte 0 -- -- 54
2019-06-04 09:00:00 19.3 5 Noroeste 10 Oeste 0 -- -- 61
2019-06-04 08:00:00 16 8 Sudeste 10 Sudeste 0 -- -- 69
2019-06-04 07:00:00 14.6 5 Nordeste 6 Norte 0 -- -- 73
2019-06-04 06:00:00 16 0 Calma 7 Nordeste 0 -- -- 69
2019-06-04 05:00:00 17 6 Nordeste 8 Nordeste 0 -- -- 64
2019-06-04 04:00:00 18.5 0 Calma 6 Sudoeste 0 -- -- 53
2019-06-04 03:00:00 20.5 3 Sudoeste 17 Sudoeste 0 -- -- 47
2019-06-04 02:00:00 21.2 8 Sudoeste 17 Sur 0 -- -- 45
2019-06-04 01:00:00 22.3 12 Sudoeste 21 Sudoeste 0 -- -- 45
2019-06-04 00:00:00 23.5 8 Sudoeste 16 Sudoeste 0 -- -- 33
2019-06-03 23:00:00 25.5 12 Oeste 23 Oeste 0 -- -- 28
2019-06-03 22:00:00 27.7 15 Oeste 24 Sudoeste 0 -- -- 25
2019-06-03 21:00:00 31.1 17 Sudoeste 35 Sudoeste 0 -- -- 20
2019-06-03 20:00:00 33 24 Sudoeste 35 Sudoeste 0 -- -- 18
2019-06-03 19:00:00 35.2 16 Sudoeste 24 Sudoeste 0 -- -- 10
2019-06-03 18:00:00 35.2 14 Sudoeste 28 Sudoeste 0 -- -- 10
2019-06-03 17:00:00 34.9 14 Sudoeste 26 Oeste 0 -- -- 13
2019-06-03 16:00:00 34.5 12 Oeste 24 Oeste 0 -- -- 17
2019-06-03 15:00:00 33.6 7 Sudoeste 20 Sur 0 -- -- 18
2019-06-03 14:00:00 32 7 Oeste 15 Oeste 0 -- -- 22
2019-06-03 13:00:00 31 5 Este 12 Sudeste 0 -- -- 24
2019-06-03 12:00:00 28.2 4 Este 13 Este 0 -- -- 29
2019-06-03 11:00:00 25.9 7 Nordeste 15 Nordeste 0 -- -- 34
2019-06-03 10:00:00 23.2 10 Este 17 Este 0 -- -- 42
2019-06-03 09:00:00 20.2 8 Este 13 Este 0 -- -- 51
2019-06-03 08:00:00 16.9 9 Este 11 Este 0 -- -- 62
2019-06-03 07:00:00 16.1 5 Este 10 Nordeste 0 -- -- 64
2019-06-03 06:00:00 17.4 3 Nordeste 6 Sudeste 0 -- -- 58
2019-06-03 05:00:00 19.2 3 Sur 9 Sudoeste 0 -- -- 50
2019-06-03 04:00:00 20.6 6 Sudoeste 14 Sudoeste 0 -- -- 46
2019-06-03 03:00:00 21.5 9 Sudoeste 20 Sudoeste 0 -- -- 45
2019-06-03 02:00:00 23.1 14 Sudoeste 34 Sudoeste 0 -- -- 38
2019-06-03 01:00:00 23.9 22 Sudoeste 37 Sudoeste 0 -- -- 36
2019-06-03 00:00:00 24.9 24 Oeste 37 Oeste 0 -- -- 34
2019-06-02 23:00:00 26.9 23 Oeste 34 Oeste 0 -- -- 27
2019-06-02 22:00:00 30.1 16 Sudoeste 27 Oeste 0 -- -- 24
2019-06-02 21:00:00 34.5 8 Sur 13 Sudeste 0 -- -- 11
2019-06-02 20:00:00 36.3 8 Sudeste 16 Sudeste 0 -- -- 9
2019-06-02 19:00:00 36.7 9 Este 17 Sudeste 0 -- -- 10
2019-06-02 18:00:00 36.5 10 Sudeste 21 Este 0 -- -- 10
2019-06-02 17:00:00 35.7 6 Sudeste 18 Nordeste 0 -- -- 13
2019-06-02 16:00:00 35.3 8 Este 21 Este 0 -- -- 16
2019-06-02 15:00:00 33.7 10 Este 21 Este 0 -- -- 18
2019-06-02 14:00:00 32.7 12 Este 31 Este 0 -- -- 20
2019-06-02 13:00:00 31.3 13 Nordeste 22 Nordeste 0 -- -- 25
2019-06-02 12:00:00 28.7 13 Nordeste 23 Este 0 -- -- 26
2019-06-02 11:00:00 26.6 13 Este 24 Este 0 -- -- 30
2019-06-02 10:00:00 23.9 16 Este 27 Este 0 -- -- 32
2019-06-02 09:00:00 20.6 12 Este 18 Nordeste 0 -- -- 41
2019-06-02 08:00:00 17.1 6 Nordeste 14 Este 0 -- -- 49
2019-06-02 07:00:00 15.9 9 Nordeste 13 Este 0 -- -- 52
2019-06-02 06:00:00 16.6 8 Nordeste 12 Este 0 -- -- 48
2019-06-02 05:00:00 17.7 7 Este 11 Este 0 -- -- 43
2019-06-02 04:00:00 18.8 9 Este 12 Este 0 -- -- 38
2019-06-02 03:00:00 19.7 10 Este 17 Este 0 -- -- 36
2019-06-02 02:00:00 20.2 9 Este 12 Este 0 -- -- 40
2019-06-02 01:00:00 21.9 5 Sudeste 9 Sudoeste 0 -- -- 40
2019-06-02 00:00:00 24.5 4 Sudoeste 11 Norte 0 -- -- 37
2019-06-01 23:00:00 26.5 7 Oeste 15 Sudoeste 0 -- -- 31
2019-06-01 22:00:00 29 7 Sudoeste 17 Sudoeste 0 -- -- 27
2019-06-01 21:00:00 33 6 Sur 15 Sur 0 -- -- 17
2019-06-01 20:00:00 34 11 Sur 22 Sur 0 -- -- 15
2019-06-01 19:00:00 34.5 15 Sudeste 32 Sur 0 -- -- 15
2019-06-01 18:00:00 34.6 18 Sudeste 30 Sudeste 0 -- -- 15
2019-06-01 17:00:00 34.5 14 Sudeste 32 Sudeste 0 -- -- 17
2019-06-01 16:00:00 33.9 15 Sudeste 33 Este 0 -- -- 18
2019-06-01 15:00:00 33.2 17 Sudeste 28 Este 0 -- -- 20
2019-06-01 14:00:00 31.5 16 Este 28 Este 0 -- -- 22
2019-06-01 13:00:00 30 15 Este 28 Sudeste 0 -- -- 27
2019-06-01 12:00:00 27.9 13 Nordeste 25 Nordeste 0 -- -- 35
2019-06-01 11:00:00 25.5 16 Este 24 Este 0 -- -- 39
2019-06-01 10:00:00 23.6 15 Este 26 Este 0 -- -- 44
2019-06-01 09:00:00 20.6 14 Este 24 Este 0 -- -- 52
2019-06-01 08:00:00 19 11 Este 23 Este 0 -- -- 54
2019-06-01 07:00:00 18 14 Este 24 Este 0 -- -- 55
2019-06-01 06:00:00 17.9 9 Nordeste 15 Este 0 -- -- 55
2019-06-01 05:00:00 18 9 Nordeste 14 Nordeste 0 -- -- 54
2019-06-01 04:00:00 18.9 10 Nordeste 18 Este 0 -- -- 49
2019-06-01 03:00:00 19.9 13 Este 18 Este 0 -- -- 43
2019-06-01 02:00:00 20.2 10 Este 14 Este 0 -- -- 40
2019-06-01 01:00:00 21 10 Este 14 Este 0 -- -- 37
2019-06-01 00:00:00 22.2 9 Este 14 Este 0 -- -- 34
2019-05-31 23:00:00 24.1 9 Este 13 Este 0 -- -- 30
2019-05-31 22:00:00 26.9 9 Sudeste 23 Sudeste 0 -- -- 23
2019-05-31 21:00:00 30.2 19 Sudeste 32 Sudeste 0 -- -- 19
2019-05-31 20:00:00 32.2 22 Sudeste 33 Sudeste 0 -- -- 17
2019-05-31 19:00:00 33.3 20 Sudeste 31 Sudeste 0 -- -- 17
2019-05-31 18:00:00 33.7 20 Sudeste 32 Sur 0 -- -- 18
2019-05-31 17:00:00 33.9 12 Sudeste 37 Sudeste 0 -- -- 19
2019-05-31 16:00:00 33.4 23 Sudeste 37 Sudeste 0 -- -- 19
2019-05-31 15:00:00 32.5 13 Este 31 Este 0 -- -- 20
2019-05-31 14:00:00 31.6 15 Sudeste 36 Este 0 -- -- 22
2019-05-31 13:00:00 29.8 16 Este 33 Este 0 -- -- 28
2019-05-31 12:00:00 27.3 16 Nordeste 29 Nordeste 0 -- -- 32
2019-05-31 11:00:00 25 19 Este 30 Este 0 -- -- 36
2019-05-31 10:00:00 22.3 16 Nordeste 26 Nordeste 0 -- -- 42
2019-05-31 09:00:00 19.6 15 Este 24 Este 0 -- -- 48
2019-05-31 08:00:00 16.5 14 Nordeste 22 Nordeste 0 -- -- 55
2019-05-31 07:00:00 15.3 12 Nordeste 20 Nordeste 0 -- -- 58
2019-05-31 06:00:00 16.1 9 Este 13 Este 0 -- -- 54
2019-05-31 05:00:00 18.4 10 Este 18 Este 0 -- -- 44
2019-05-31 04:00:00 17.5 5 Norte 15 Este 0 -- -- 48
2019-05-31 03:00:00 18.6 10 Nordeste 19 Este 0 -- -- 43
2019-05-31 02:00:00 19.1 9 Nordeste 16 Este 0 -- -- 42
2019-05-31 01:00:00 20 11 Nordeste 16 Este 0 -- -- 37
2019-05-31 00:00:00 21.6 0 Calma 22 Este 0 -- -- 37
2019-05-30 23:00:00 23.6 11 Este 25 Sudeste 0 -- -- 35
2019-05-30 22:00:00 26 15 Sudeste 23 Sudeste 0 -- -- 31
2019-05-30 21:00:00 29.2 17 Sudeste 25 Sudeste 0 -- -- 27
2019-05-30 20:00:00 31.7 15 Sudeste 24 Sudeste 0 -- -- 24
2019-05-30 19:00:00 32.2 17 Sudeste 31 Sudeste 0 -- -- 23
2019-05-30 18:00:00 32.4 21 Sudeste 35 Sudeste 0 -- -- 24
2019-05-30 17:00:00 32.3 17 Sudeste 31 Este 0 -- -- 24
2019-05-30 16:00:00 31.6 15 Este 33 Sudeste 0 -- -- 27
2019-05-30 15:00:00 30.8 20 Sudeste 38 Sudeste 0 -- -- 27
2019-05-30 14:00:00 29.9 22 Este 40 Sudeste 0 -- -- 29
2019-05-30 13:00:00 28.6 23 Este 40 Este 0 -- -- 31
2019-05-30 12:00:00 27.1 25 Este 42 Este 0 -- -- 35
2019-05-30 11:00:00 25.2 25 Este 41 Este 0 -- -- 37
2019-05-30 10:00:00 23.2 25 Este 39 Este 0 -- -- 41
2019-05-30 09:00:00 20.6 17 Este 27 Este 0 -- -- 52
2019-05-30 08:00:00 18.3 17 Este 27 Este 0 -- -- 60
2019-05-30 07:00:00 17.3 13 Este 23 Nordeste 0 -- -- 63
2019-05-30 06:00:00 17.5 11 Este 22 Este 0 -- -- 62
2019-05-30 05:00:00 17.9 13 Este 19 Este 0 -- -- 58
2019-05-30 04:00:00 18.2 12 Este 18 Este 0 -- -- 56
2019-05-30 03:00:00 18.8 7 Este 14 Este 0 -- -- 51
2019-05-30 02:00:00 20.2 9 Este 13 Este 0 -- -- 48
2019-05-30 01:00:00 22.6 7 Sudeste 19 Sudeste 0 -- -- 40
2019-05-30 00:00:00 24.9 14 Sudeste 22 Sudeste 0 -- -- 32
2019-05-29 23:00:00 25.7 12 Este 15 Este 0 -- -- 29
2019-05-29 22:00:00 28.2 9 Este 14 Este 0 -- -- 25
2019-05-29 21:00:00 32.7 12 Este 25 Este 0 -- -- 17
2019-05-29 20:00:00 34.2 17 Este 30 Este 0 -- -- 15
2019-05-29 19:00:00 34.7 15 Este 27 Nordeste 0 -- -- 15
2019-05-29 18:00:00 34.9 16 Este 32 Este 0 -- -- 15
2019-05-29 17:00:00 34.4 16 Este 33 Este 0 -- -- 16
2019-05-29 16:00:00 34 21 Este 35 Este 0 -- -- 16
2019-05-29 15:00:00 32.8 18 Nordeste 32 Este 0 -- -- 18
2019-05-29 14:00:00 31.8 19 Nordeste 40 Este 0 -- -- 19
2019-05-29 13:00:00 30.6 22 Este 40 Este 0 -- -- 20
2019-05-29 12:00:00 28.9 22 Este 40 Nordeste 0 -- -- 23
2019-05-29 11:00:00 26.7 20 Nordeste 40 Este 0 -- -- 27
2019-05-29 10:00:00 25.1 22 Este 46 Este 0 -- -- 30
2019-05-29 09:00:00 22.2 18 Este 27 Este 0 -- -- 37
2019-05-29 08:00:00 18.3 12 Nordeste 19 Nordeste 0 -- -- 52
2019-05-29 07:00:00 16.1 5 Nordeste 10 Nordeste 0 -- -- 74
2019-05-29 06:00:00 16.6 7 Nordeste 15 Nordeste 0 -- -- 77
2019-05-29 05:00:00 17.4 6 Nordeste 15 Este 0 -- -- 75
2019-05-29 04:00:00 18.3 8 Este 12 Este 0 -- -- 69
2019-05-29 03:00:00 19.2 2 Norte 6 Noroeste 0 -- -- 67
2019-05-29 02:00:00 20.4 3 Oeste 13 Este 0 -- -- 64
2019-05-29 01:00:00 22.5 4 Sur 8 Sudoeste 0 -- -- 56
2019-05-29 00:00:00 24.2 9 Sudoeste 17 Sudoeste 0 -- -- 51
2019-05-28 23:00:00 25.6 9 Sudoeste 24 Sudoeste 0 -- -- 47
2019-05-28 22:00:00 27.8 12 Sudoeste 26 Sur 0 -- -- 39
2019-05-28 21:00:00 30.3 17 Sudoeste 33 Sudoeste 0 -- -- 25
2019-05-28 20:00:00 32.3 21 Sudoeste 39 Sudoeste 0 -- -- 25
2019-05-28 19:00:00 33.6 27 Sudoeste 41 Sudoeste 0 -- -- 26
2019-05-28 18:00:00 35.9 7 Sudoeste 21 Oeste 0 -- -- 19
2019-05-28 17:00:00 35.9 5 Oeste 19 Sur 0 -- -- 19
2019-05-28 16:00:00 35.1 8 Noroeste 21 Este 0 -- -- 22
2019-05-28 15:00:00 34.5 9 Este 20 Sudeste 0 -- -- 21
2019-05-28 14:00:00 32.7 6 Noroeste 12 Norte 0 -- -- 26
2019-05-28 13:00:00 30.8 6 Oeste 12 Oeste 0 -- -- 30
2019-05-28 12:00:00 29.6 4 Nordeste 12 Este 0 -- -- 33
2019-05-28 11:00:00 27.3 4 Nordeste 10 Nordeste 0 -- -- 39
2019-05-28 10:00:00 24.7 6 Nordeste 9 Nordeste 0 -- -- 48
2019-05-28 09:00:00 21 6 Este 9 Este 0 -- -- 59
2019-05-28 08:00:00 17.3 6 Este 10 Este 0 -- -- 71
2019-05-28 07:00:00 16 6 Este 8 Este 0 -- -- 75
2019-05-28 06:00:00 16.9 3 Nordeste 12 Noroeste 0 -- -- 73
2019-05-28 05:00:00 19 4 Sur 9 Sur 0 -- -- 62
2019-05-28 04:00:00 18.3 2 Sudoeste 5 Sur 0 -- -- 68
2019-05-28 03:00:00 19.2 4 Sur 6 Sur 0 -- -- 63
2019-05-28 02:00:00 20.5 2 Norte 5 Sudoeste 0 -- -- 60
2019-05-28 01:00:00 22.4 3 Noroeste 15 Sudoeste 0 -- -- 53
2019-05-28 00:00:00 24.2 10 Sudoeste 26 Sudoeste 0 -- -- 46
2019-05-27 23:00:00 25.2 14 Sudoeste 25 Sudoeste 0 -- -- 40
2019-05-27 22:00:00 27.9 19 Sudoeste 34 Sudoeste 0 -- -- 30
2019-05-27 21:00:00 30.8 24 Oeste 45 Sudoeste 0 -- -- 26
2019-05-27 20:00:00 32.6 22 Sudoeste 36 Sudoeste 0 -- -- 23
2019-05-27 19:00:00 33.5 23 Sudoeste 39 Oeste 0 -- -- 24
2019-05-27 18:00:00 35.1 11 Sudoeste 30 Oeste 0 -- -- 18
2019-05-27 17:00:00 35.1 10 Sudoeste 27 Oeste 0 -- -- 17
2019-05-27 16:00:00 34.6 13 Sur 22 Sudoeste 0 -- -- 17
2019-05-27 15:00:00 33.4 10 Sur 19 Sudeste 0 -- -- 17
2019-05-27 14:00:00 31.9 5 Sur 14 Oeste 0 -- -- 22
2019-05-27 13:00:00 30 6 Nordeste 13 Nordeste 0 -- -- 26
2019-05-27 12:00:00 27 6 Sudeste 14 Sudeste 0 -- -- 34
2019-05-27 11:00:00 24 7 Sudeste 18 Este 0 -- -- 42
2019-05-27 10:00:00 21.4 10 Este 19 Este 0 -- -- 53
2019-05-27 09:00:00 18.7 10 Este 15 Este 0 -- -- 61
2019-05-27 08:00:00 15.4 3 Nordeste 10 Este 0 -- -- 76
2019-05-27 07:00:00 14.4 7 Nordeste 10 Nordeste 0 -- -- 77
2019-05-27 06:00:00 15.3 2 Nordeste 7 Sudeste 0 -- -- 68
2019-05-27 05:00:00 16.1 3 Sudeste 8 Sudeste 0 -- -- 68
2019-05-27 04:00:00 17.2 0 Calma 4 Oeste 0 -- -- 64
2019-05-27 03:00:00 18.6 4 Oeste 10 Sudoeste 0 -- -- 58
2019-05-27 02:00:00 20.3 4 Sudoeste 18 Sudoeste 0 -- -- 52
2019-05-27 01:00:00 21.4 9 Sudoeste 24 Sudoeste 0 -- -- 52
2019-05-27 00:00:00 24 19 Sudoeste 32 Sudoeste 0 -- -- 35
2019-05-26 23:00:00 24.4 14 Sudoeste 24 Oeste 0 -- -- 37
2019-05-26 22:00:00 26.7 19 Oeste 33 Oeste 0 -- -- 34
2019-05-26 21:00:00 30.2 17 Oeste 27 Oeste 0 -- -- 29
2019-05-26 20:00:00 33.3 11 Nordeste 24 Nordeste 0 -- -- 17
2019-05-26 19:00:00 33.8 7 Noroeste 26 Noroeste 0 -- -- 19
2019-05-26 18:00:00 33.2 12 Oeste 19 Noroeste 0 -- -- 20
2019-05-26 17:00:00 32.4 4 Sudoeste 19 Oeste 0 -- -- 22
2019-05-26 16:00:00 31.8 9 Sur 18 Este 0 -- -- 23
2019-05-26 15:00:00 30.8 8 Nordeste 18 Este 0 -- -- 25
2019-05-26 14:00:00 29.8 8 Nordeste 15 Este 0 -- -- 26
2019-05-26 13:00:00 28.1 8 Sudeste 20 Sudeste 0 -- -- 32
2019-05-26 12:00:00 25.8 6 Este 17 Sudeste 0 -- -- 39
2019-05-26 11:00:00 23.6 5 Este 11 Este 0 -- -- 53
2019-05-26 10:00:00 21 4 Nordeste 11 Este 0 -- -- 62
2019-05-26 09:00:00 18.6 7 Este 10 Nordeste 0 -- -- 71
2019-05-26 08:00:00 15.3 7 Este 10 Este 0 -- -- 82
2019-05-26 07:00:00 14.4 6 Este 9 Norte 0 -- -- 82
2019-05-26 06:00:00 15.3 5 Sur 17 Nordeste 0 -- -- 81
2019-05-26 05:00:00 16 3 Sudoeste 5 Oeste 0 -- -- 78
2019-05-26 04:00:00 17 0 Calma 6 Oeste 0 -- -- 75
2019-05-26 03:00:00 18.2 3 Oeste 10 Sudoeste 0 -- -- 73
2019-05-26 02:00:00 19.3 8 Sudoeste 15 Sudoeste 0 -- -- 70
2019-05-26 01:00:00 20.3 10 Sudoeste 21 Sur 0 -- -- 68
2019-05-26 00:00:00 21.5 14 Sudoeste 28 Sudoeste 0 -- -- 64